createdAt,value
2018-06-19T00:02:28.389Z,98539.45
2018-06-19T00:04:57.729Z,98548.28
2018-06-19T00:07:26.993Z,98550.17
2018-06-19T00:09:56.225Z,98541.86
2018-06-19T00:12:25.462Z,98545.66
2018-06-19T00:14:54.465Z,98542.78
2018-06-19T00:17:23.743Z,98545.70
2018-06-19T00:19:54.606Z,98548.33
2018-06-19T00:22:23.862Z,98539.99
2018-06-19T00:24:53.211Z,98537.30
2018-06-19T00:27:22.597Z,98543.70
2018-06-19T00:29:51.857Z,98539.06
2018-06-19T00:32:21.110Z,98547.14
2018-06-19T00:34:50.378Z,98545.52
2018-06-19T00:37:19.631Z,98548.66
2018-06-19T00:39:48.906Z,98544.64
2018-06-19T00:42:18.205Z,98547.55
2018-06-19T00:44:47.425Z,98546.42
2018-06-19T00:47:16.689Z,98547.76
2018-06-19T00:49:45.906Z,98543.98
2018-06-19T00:52:15.150Z,98548.59
2018-06-19T00:54:44.486Z,98545.39
2018-06-19T00:57:13.737Z,98552.09
2018-06-19T00:59:43.008Z,98552.09
2018-06-19T01:02:12.288Z,98544.06
2018-06-19T01:04:41.562Z,98549.11
2018-06-19T01:07:10.866Z,98546.22
2018-06-19T01:09:40.224Z,98549.34
2018-06-19T01:12:09.464Z,98549.34
2018-06-19T01:14:38.679Z,98545.86
2018-06-19T01:17:07.948Z,98540.55
2018-06-19T01:19:37.258Z,98546.97
2018-06-19T01:22:06.511Z,98539.50
2018-06-19T01:24:35.751Z,98547.30
2018-06-19T01:27:05.004Z,98550.81
2018-06-19T01:29:34.224Z,98540.75
2018-06-19T01:32:03.508Z,98549.20
2018-06-19T01:34:32.735Z,98547.61
2018-06-19T01:37:02.220Z,98548.68
2018-06-19T01:39:31.458Z,98554.03
2018-06-19T01:42:00.710Z,98552.51
2018-06-19T01:44:30.063Z,98543.77
2018-06-19T01:46:59.359Z,98554.31
2018-06-19T01:49:28.594Z,98560.77
2018-06-19T01:51:57.822Z,98558.09
2018-06-19T01:54:27.067Z,98560.02
2018-06-19T01:56:56.268Z,98554.72
2018-06-19T01:59:25.509Z,98548.88
2018-06-19T02:01:54.739Z,98549.97
2018-06-19T02:04:23.731Z,98555.63
2018-06-19T02:06:53.003Z,98554.33
2018-06-19T02:09:22.275Z,98557.05
2018-06-19T02:11:51.555Z,98554.89
2018-06-19T02:14:20.863Z,98551.72
2018-06-19T02:16:50.135Z,98556.02
2018-06-19T02:19:19.425Z,98558.14
2018-06-19T02:21:48.531Z,98557.90
2018-06-19T02:24:17.660Z,98567.53
2018-06-19T02:26:46.895Z,98559.73
2018-06-19T02:29:16.203Z,98563.55
2018-06-19T02:31:45.427Z,98561.64
2018-06-19T02:34:14.676Z,98565.34
2018-06-19T02:36:43.886Z,98566.44
2018-06-19T02:39:13.195Z,98560.55
2018-06-19T02:41:42.447Z,98561.07
2018-06-19T02:44:11.705Z,98557.65
2018-06-19T02:46:40.930Z,98561.92
2018-06-19T02:49:10.189Z,98565.20
2018-06-19T02:51:39.412Z,98566.77
2018-06-19T02:54:08.642Z,98568.63
2018-06-19T02:56:37.906Z,98567.82
2018-06-19T02:59:07.183Z,98574.53
2018-06-19T03:01:36.446Z,98575.09
2018-06-19T03:04:05.743Z,98571.14
2018-06-19T03:06:34.984Z,98578.98
2018-06-19T03:09:06.371Z,98587.60
2018-06-19T03:11:35.615Z,98584.13
2018-06-19T03:14:04.910Z,98581.75
2018-06-19T03:16:34.127Z,98587.16
2018-06-19T03:19:03.678Z,98591.77
2018-06-19T03:21:32.753Z,98595.53
2018-06-19T03:24:02.053Z,98588.88
2018-06-19T03:26:31.278Z,98587.27
2018-06-19T03:29:00.548Z,98589.41
2018-06-19T03:31:29.799Z,98588.06
2018-06-19T03:33:59.019Z,98593.20
2018-06-19T03:36:28.427Z,98601.27
2018-06-19T03:38:57.731Z,98594.54
2018-06-19T03:41:26.971Z,98597.23
2018-06-19T03:43:56.190Z,98596.45
2018-06-19T03:46:25.432Z,98588.91
2018-06-19T03:48:54.748Z,98589.73
2018-06-19T03:51:23.986Z,98602.38
2018-06-19T03:53:53.184Z,98595.94
2018-06-19T03:56:22.423Z,98601.31
2018-06-19T03:58:51.819Z,98606.70
2018-06-19T04:01:21.189Z,98608.05
2018-06-19T04:03:50.571Z,98613.98
2018-06-19T04:06:20.008Z,98614.26
2018-06-19T04:08:49.336Z,98615.60
2018-06-19T04:11:18.603Z,98618.03
2018-06-19T04:13:47.850Z,98616.66
2018-06-19T04:16:17.532Z,98620.16
2018-06-19T04:18:46.754Z,98615.29
2018-06-19T04:21:16.000Z,98618.23
2018-06-19T04:23:45.220Z,98619.33
2018-06-19T04:26:14.463Z,98619.05
2018-06-19T04:28:43.678Z,98618.27
2018-06-19T04:31:13.041Z,98613.13
2018-06-19T04:33:42.334Z,98611.81
2018-06-19T04:36:11.579Z,98615.33
2018-06-19T04:38:40.897Z,98618.02
2018-06-19T04:41:10.183Z,98618.06
2018-06-19T04:43:39.407Z,98619.38
2018-06-19T04:46:08.727Z,98621.30
2018-06-19T04:48:38.022Z,98621.41
2018-06-19T04:51:07.347Z,98619.85
2018-06-19T04:53:36.578Z,98616.82
2018-06-19T04:56:05.909Z,98623.06
2018-06-19T04:58:35.234Z,98610.71
2018-06-19T05:01:04.688Z,98615.97
2018-06-19T05:03:34.065Z,98620.13
2018-06-19T05:06:03.342Z,98613.73
2018-06-19T05:08:32.632Z,98608.70
2018-06-19T05:11:01.879Z,98609.73
2018-06-19T05:13:31.165Z,98618.02
2018-06-19T05:16:00.395Z,98608.47
2018-06-19T05:18:29.676Z,98611.25
2018-06-19T05:20:58.920Z,98618.97
2018-06-19T05:23:28.178Z,98620.74
2018-06-19T05:25:57.531Z,98618.58
2018-06-19T05:28:26.889Z,98617.95
2018-06-19T05:30:56.109Z,98624.09
2018-06-19T05:33:25.351Z,98625.17
2018-06-19T05:35:55.146Z,98631.43
2018-06-19T05:38:24.511Z,98637.45
2018-06-19T05:40:53.565Z,98638.16
2018-06-19T05:43:22.873Z,98639.34
2018-06-19T05:45:52.096Z,98639.98
2018-06-19T05:48:21.386Z,98636.01
2018-06-19T05:50:50.664Z,98634.52
2018-06-19T05:53:19.999Z,98637.97
2018-06-19T05:55:50.451Z,98639.89
2018-06-19T05:58:19.533Z,98640.58
2018-06-19T06:00:49.220Z,98641.81
2018-06-19T06:03:18.630Z,98644.69
2018-06-19T06:05:48.053Z,98647.38
2018-06-19T06:08:17.317Z,98651.98
2018-06-19T06:10:46.594Z,98657.49
2018-06-19T06:13:15.878Z,98652.80
2018-06-19T06:15:45.134Z,98651.13
2018-06-19T06:18:14.370Z,98663.28
2018-06-19T06:20:43.639Z,98662.96
2018-06-19T06:23:12.955Z,98661.08
2018-06-19T06:25:42.233Z,98669.22
2018-06-19T06:28:11.496Z,98673.14
2018-06-19T06:30:41.321Z,98673.06
2018-06-19T06:33:10.526Z,98668.80
2018-06-19T06:35:39.737Z,98674.41
2018-06-19T06:38:09.033Z,98672.38
2018-06-19T06:40:40.810Z,98671.41
2018-06-19T06:43:18.552Z,98681.45
2018-06-19T06:45:55.021Z,98680.05
2018-06-19T06:48:31.266Z,98683.19
2018-06-19T06:51:07.826Z,98685.64
2018-06-19T06:53:43.968Z,98680.45
2018-06-19T06:56:19.201Z,98673.73
2018-06-19T06:58:57.151Z,98675.52
2018-06-19T07:01:33.504Z,98671.66
2018-06-19T07:04:08.584Z,98675.17
2018-06-19T07:06:45.714Z,98684.59
2018-06-19T07:09:19.951Z,98677.81
2018-06-19T07:11:57.739Z,98676.28
2018-06-19T07:14:36.333Z,98681.30
2018-06-19T07:17:11.336Z,98682.63
2018-06-19T07:19:48.048Z,98675.63
2018-06-19T07:22:26.440Z,98678.73
2018-06-19T07:25:02.442Z,98676.28
2018-06-19T07:27:43.462Z,98685.34
2018-06-19T07:30:17.906Z,98682.39
2018-06-19T07:32:56.135Z,98681.81
2018-06-19T07:35:36.354Z,98685.04
2018-06-19T07:38:13.457Z,98675.44
2018-06-19T07:40:56.398Z,98672.56
2018-06-19T07:43:32.885Z,98676.01
2018-06-19T07:46:09.210Z,98673.09
2018-06-19T07:48:46.930Z,98666.89
2018-06-19T07:51:24.191Z,98663.14
2018-06-19T07:54:03.069Z,98658.16
2018-06-19T07:56:42.612Z,98660.75
2018-06-19T07:59:20.334Z,98665.36
2018-06-19T08:02:01.604Z,98670.45
2018-06-19T08:04:38.905Z,98664.45
2018-06-19T08:07:16.649Z,98664.89
2018-06-19T08:09:54.270Z,98670.29
2018-06-19T08:12:23.851Z,98675.52
2018-06-19T08:14:53.188Z,98676.11
2018-06-19T08:17:22.532Z,98673.64
2018-06-19T08:19:51.828Z,98673.23
2018-06-19T08:22:21.174Z,98667.53
2018-06-19T08:24:50.571Z,98662.77
2018-06-19T08:27:20.236Z,98656.41
2018-06-19T08:29:49.579Z,98662.89
2018-06-19T08:32:19.021Z,98656.35
2018-06-19T08:34:48.066Z,98652.36
2018-06-19T08:37:17.463Z,98651.36
2018-06-19T08:39:46.814Z,98652.42
2018-06-19T08:42:16.176Z,98656.12
2018-06-19T08:44:45.450Z,98659.89
2018-06-19T08:47:14.804Z,98655.33
2018-06-19T08:49:43.849Z,98656.09
2018-06-19T08:52:13.177Z,98655.78
2018-06-19T08:54:42.471Z,98663.02
2018-06-19T08:57:11.928Z,98661.02
2018-06-19T08:59:41.389Z,98659.31
2018-06-19T09:02:10.506Z,98657.23
2018-06-19T09:04:39.901Z,98652.44
2018-06-19T09:07:09.482Z,98659.36
2018-06-19T09:09:39.123Z,98657.03
2018-06-19T09:12:08.607Z,98653.23
2018-06-19T09:14:37.920Z,98661.41
2018-06-19T09:17:07.346Z,98663.61
2018-06-19T09:19:36.880Z,98658.53
2018-06-19T09:22:06.297Z,98658.25
2018-06-19T09:24:35.710Z,98650.02
2018-06-19T09:27:05.188Z,98658.83
2018-06-19T09:29:34.521Z,98657.03
2018-06-19T09:32:03.825Z,98661.83
2018-06-19T09:34:33.238Z,98666.61
2018-06-19T09:37:02.575Z,98664.78
2018-06-19T09:39:31.890Z,98657.27
2018-06-19T09:42:00.922Z,98657.64
2018-06-19T09:44:30.586Z,98655.98
2018-06-19T09:47:00.058Z,98653.22
2018-06-19T09:49:29.626Z,98655.80
2018-06-19T09:52:00.604Z,98655.22
2018-06-19T09:54:31.351Z,98659.16
2018-06-19T09:57:02.531Z,98656.86
2018-06-19T09:59:34.022Z,98649.49
2018-06-19T10:02:03.431Z,98659.71
2018-06-19T10:04:32.750Z,98666.17
2018-06-19T10:07:02.162Z,98665.17
2018-06-19T10:09:31.491Z,98662.55
2018-06-19T10:12:00.848Z,98659.08
2018-06-19T10:14:30.139Z,98665.28
2018-06-19T10:16:59.527Z,98663.02
2018-06-19T10:19:28.969Z,98666.09
2018-06-19T10:21:58.363Z,98657.97
2018-06-19T10:24:27.749Z,98667.97
2018-06-19T10:26:57.035Z,98658.16
2018-06-19T10:29:26.473Z,98658.32
2018-06-19T10:31:55.737Z,98659.36
2018-06-19T10:34:25.231Z,98652.47
2018-06-19T10:36:54.644Z,98656.34
2018-06-19T10:39:24.019Z,98655.28
2018-06-19T10:41:53.346Z,98655.62
2018-06-19T10:44:22.402Z,98650.98
2018-06-19T10:46:51.828Z,98645.53
2018-06-19T10:49:21.228Z,98648.67
2018-06-19T10:51:50.281Z,98646.98
2018-06-19T10:54:19.761Z,98651.92
2018-06-19T10:56:49.225Z,98643.53
2018-06-19T10:59:18.561Z,98650.42
2018-06-19T11:01:48.027Z,98641.36
2018-06-19T11:04:17.396Z,98646.02
2018-06-19T11:06:46.750Z,98645.20
2018-06-19T11:09:16.126Z,98641.79
2018-06-19T11:11:45.631Z,98649.62
2018-06-19T11:14:14.999Z,98646.89
2018-06-19T11:16:44.282Z,98652.03
2018-06-19T11:19:13.571Z,98640.60
2018-06-19T11:21:42.882Z,98647.62
2018-06-19T11:24:11.899Z,98646.04
2018-06-19T11:26:41.188Z,98637.30
2018-06-19T11:29:10.493Z,98642.20
2018-06-19T11:31:39.733Z,98638.02
2018-06-19T11:34:08.893Z,98629.31
2018-06-19T11:36:38.226Z,98626.68
2018-06-19T11:39:11.420Z,98627.42
2018-06-19T11:41:40.814Z,98627.36
2018-06-19T11:44:10.122Z,98624.91
2018-06-19T11:46:39.448Z,98622.59
2018-06-19T11:49:08.836Z,98623.02
2018-06-19T11:51:38.311Z,98625.35
2018-06-19T11:54:07.667Z,98623.02
2018-06-19T11:56:36.973Z,98618.64
2018-06-19T11:59:05.974Z,98618.80
2018-06-19T12:01:35.262Z,98617.77
2018-06-19T12:04:04.522Z,98615.52
2018-06-19T12:06:33.820Z,98611.23
2018-06-19T12:09:03.149Z,98614.74
2018-06-19T12:11:32.440Z,98615.92
2018-06-19T12:14:01.463Z,98607.31
2018-06-19T12:16:30.851Z,98610.35
2018-06-19T12:18:59.955Z,98607.83
2018-06-19T12:21:29.282Z,98610.84
2018-06-19T12:23:58.550Z,98609.13
2018-06-19T12:26:28.159Z,98609.84
2018-06-19T12:28:57.515Z,98598.19
2018-06-19T12:31:26.898Z,98601.77
2018-06-19T12:33:56.159Z,98603.63
2018-06-19T12:36:25.721Z,98595.27
2018-06-19T12:38:55.136Z,98596.31
2018-06-19T12:41:36.041Z,98600.09
2018-06-19T12:44:05.263Z,98594.98
2018-06-19T12:46:34.868Z,98596.42
2018-06-19T12:49:04.215Z,98590.19
2018-06-19T12:51:58.563Z,98590.39
2018-06-19T12:55:41.215Z,98583.87
2018-06-19T12:58:10.558Z,98593.92
2018-06-19T13:00:40.023Z,98590.98
2018-06-19T13:03:26.762Z,98589.48
2018-06-19T13:06:13.089Z,98590.05
2018-06-19T13:08:42.456Z,98586.52
2018-06-19T13:11:11.872Z,98585.87
2018-06-19T13:13:58.187Z,98578.88
2018-06-19T13:16:44.455Z,98581.00
2018-06-19T13:21:35.704Z,98573.00
2018-06-19T13:24:05.025Z,98574.34
2018-06-19T13:26:34.250Z,98567.61
2018-06-19T13:29:50.959Z,98573.97
2018-06-19T13:32:20.449Z,98572.31
2018-06-19T13:34:49.967Z,98569.50
2018-06-19T13:37:19.266Z,98568.44
2018-06-19T13:42:01.945Z,98571.22
2018-06-19T13:44:48.295Z,98569.20
2018-06-19T13:47:17.652Z,98560.97
2018-06-19T13:49:47.176Z,98563.19
2018-06-19T13:52:16.151Z,98560.05
2018-06-19T13:54:45.546Z,98550.30
2018-06-19T13:57:34.964Z,98561.77
2018-06-19T14:00:05.788Z,98553.66
2018-06-19T14:02:35.115Z,98557.09
2018-06-19T14:05:04.862Z,98551.74
2018-06-19T14:07:39.550Z,98557.02
2018-06-19T14:10:29.624Z,98557.81
2018-06-19T14:12:59.851Z,98554.81
2018-06-19T14:15:30.812Z,98550.09
2018-06-19T14:18:00.343Z,98554.98
2018-06-19T14:20:29.778Z,98555.31
2018-06-19T14:22:59.183Z,98543.46
2018-06-19T14:25:28.631Z,98555.98
2018-06-19T14:27:58.010Z,98553.53
2018-06-19T14:30:27.438Z,98550.02
2018-06-19T14:32:56.887Z,98547.38
2018-06-19T14:35:26.240Z,98548.80
2018-06-19T14:37:55.477Z,98548.75
2018-06-19T14:40:24.916Z,98552.03
2018-06-19T14:42:54.281Z,98556.59
2018-06-19T14:45:23.695Z,98546.35
2018-06-19T14:47:53.116Z,98544.77
2018-06-19T14:50:22.576Z,98550.38
2018-06-19T14:52:51.870Z,98540.13
2018-06-19T14:55:21.190Z,98542.64
2018-06-19T14:57:50.591Z,98538.73
2018-06-19T15:00:20.147Z,98535.63
2018-06-19T15:02:49.446Z,98538.91
2018-06-19T15:05:19.674Z,98532.60
2018-06-19T15:07:51.887Z,98531.41
2018-06-19T15:10:21.386Z,98529.91
2018-06-19T15:12:50.698Z,98532.34
2018-06-19T15:15:19.990Z,98533.22
2018-06-19T15:17:49.235Z,98529.67
2018-06-19T15:20:18.504Z,98528.95
2018-06-19T15:22:47.795Z,98533.50
2018-06-19T15:25:17.032Z,98535.34
2018-06-19T15:27:46.262Z,98532.69
2018-06-19T15:30:15.463Z,98527.50
2018-06-19T15:32:45.701Z,98525.59
2018-06-19T15:35:15.016Z,98525.38
2018-06-19T15:37:44.281Z,98520.86
2018-06-19T15:40:13.474Z,98520.78
2018-06-19T15:42:42.782Z,98520.30
2018-06-19T15:45:11.736Z,98518.50
2018-06-19T15:47:40.971Z,98519.53
2018-06-19T15:50:10.270Z,98520.30
2018-06-19T15:52:39.527Z,98520.28
2018-06-19T15:55:08.570Z,98523.57
2018-06-19T15:57:37.830Z,98520.71
2018-06-19T16:00:07.052Z,98517.70
2018-06-19T16:02:36.055Z,98511.16
2018-06-19T16:05:05.258Z,98510.53
2018-06-19T16:07:34.503Z,98509.11
2018-06-19T16:10:03.742Z,98514.25
2018-06-19T16:12:32.987Z,98510.45
2018-06-19T16:15:02.212Z,98512.48
2018-06-19T16:17:31.457Z,98504.88
2018-06-19T16:20:00.740Z,98503.83
2018-06-19T16:22:29.986Z,98509.64
2018-06-19T16:24:59.187Z,98503.77
2018-06-19T16:27:28.439Z,98508.52
2018-06-19T16:29:57.668Z,98518.11
2018-06-19T16:32:26.878Z,98510.45
2018-06-19T16:34:56.093Z,98511.84
2018-06-19T16:37:25.314Z,98502.53
2018-06-19T16:39:54.518Z,98500.90
2018-06-19T16:42:23.830Z,98503.68
2018-06-19T16:44:53.020Z,98503.02
2018-06-19T16:47:22.345Z,98507.80
2018-06-19T16:49:51.591Z,98503.36
2018-06-19T16:52:20.943Z,98507.61
2018-06-19T16:54:50.161Z,98504.34
2018-06-19T16:57:19.461Z,98506.54
2018-06-19T16:59:48.682Z,98501.17
2018-06-19T17:02:17.944Z,98504.33
2018-06-19T17:04:47.209Z,98502.89
2018-06-19T17:07:16.460Z,98496.73
2018-06-19T17:09:45.705Z,98499.98
2018-06-19T17:12:14.930Z,98494.97
2018-06-19T17:14:44.237Z,98495.12
2018-06-19T17:17:13.558Z,98497.07
2018-06-19T17:19:42.797Z,98492.54
2018-06-19T17:22:12.036Z,98490.16
2018-06-19T17:24:41.240Z,98483.86
2018-06-19T17:27:10.780Z,98481.86
2018-06-19T17:29:40.049Z,98489.08
2018-06-19T17:32:09.078Z,98486.94
2018-06-19T17:34:38.356Z,98482.46
2018-06-19T17:37:07.605Z,98479.69
2018-06-19T17:39:36.830Z,98486.14
2018-06-19T17:42:06.125Z,98485.98
2018-06-19T17:44:35.388Z,98482.86
2018-06-19T17:47:04.751Z,98486.86
2018-06-19T17:49:34.006Z,98483.14
2018-06-19T17:52:03.272Z,98486.11
2018-06-19T17:54:32.614Z,98488.92
2018-06-19T17:57:08.220Z,98489.72
2018-06-19T17:59:37.596Z,98493.39
2018-06-19T18:02:06.984Z,98491.06
2018-06-19T18:04:36.211Z,98491.77
2018-06-19T18:07:05.484Z,98488.75
2018-06-19T18:09:34.844Z,98492.72
2018-06-19T18:12:04.119Z,98495.37
2018-06-19T18:14:33.466Z,98494.17
2018-06-19T18:17:02.776Z,98494.91
2018-06-19T18:19:32.120Z,98496.81
2018-06-19T18:22:01.472Z,98494.44
2018-06-19T18:24:30.914Z,98500.33
2018-06-19T18:27:00.420Z,98491.52
2018-06-19T18:29:29.720Z,98496.88
2018-06-19T18:31:58.967Z,98502.80
2018-06-19T18:34:28.255Z,98498.27
2018-06-19T18:36:57.557Z,98501.36
2018-06-19T18:39:27.049Z,98503.53
2018-06-19T18:41:56.293Z,98504.63
2018-06-19T18:44:25.579Z,98505.73
2018-06-19T18:46:54.854Z,98502.13
2018-06-19T18:49:24.088Z,98507.55
2018-06-19T18:51:54.387Z,98504.55
2018-06-19T18:54:23.604Z,98505.58
2018-06-19T18:56:52.831Z,98495.45
2018-06-19T18:59:22.202Z,98499.75
2018-06-19T19:01:51.587Z,98494.84
2018-06-19T19:04:20.976Z,98496.08
2018-06-19T19:06:50.043Z,98490.88
2018-06-19T19:09:19.326Z,98493.73
2018-06-19T19:11:48.628Z,98493.13
2018-06-19T19:14:17.899Z,98499.83
2018-06-19T19:16:52.444Z,98496.80
2018-06-19T19:19:24.726Z,98502.52
2018-06-19T19:21:54.713Z,98500.03
2018-06-19T19:24:24.062Z,98510.70
2018-06-19T19:26:58.705Z,98504.64
2018-06-19T19:29:33.071Z,98506.00
2018-06-19T19:32:02.372Z,98504.44
2018-06-19T19:34:31.364Z,98507.41
2018-06-19T19:37:05.679Z,98508.20
2018-06-19T19:39:34.943Z,98512.13
2018-06-19T19:42:04.214Z,98514.12
2018-06-19T19:44:33.438Z,98509.05
2018-06-19T19:47:08.151Z,98514.89
2018-06-19T19:49:37.448Z,98519.11
2018-06-19T19:52:06.867Z,98518.36
2018-06-19T19:54:36.227Z,98523.56
2018-06-19T19:57:10.878Z,98525.62
2018-06-19T19:59:40.265Z,98527.23
2018-06-19T20:02:09.708Z,98527.86
2018-06-19T20:04:38.978Z,98531.52
2018-06-19T20:07:08.258Z,98529.21
2018-06-19T20:09:37.568Z,98529.06
2018-06-19T20:12:07.015Z,98537.30
2018-06-19T20:14:36.295Z,98535.04
2018-06-19T20:17:05.589Z,98535.43
2018-06-19T20:19:34.808Z,98545.17
2018-06-19T20:22:04.027Z,98536.56
2018-06-19T20:24:33.275Z,98541.20
2018-06-19T20:27:02.626Z,98537.21
2018-06-19T20:29:31.855Z,98540.30
2018-06-19T20:32:01.238Z,98539.50
2018-06-19T20:34:30.521Z,98536.31
2018-06-19T20:36:59.899Z,98541.67
2018-06-19T20:39:29.139Z,98532.63
2018-06-19T20:41:58.417Z,98532.14
2018-06-19T20:44:27.631Z,98533.27
2018-06-19T20:46:56.995Z,98540.39
2018-06-19T20:49:26.181Z,98533.15
2018-06-19T20:51:55.432Z,98531.75
2018-06-19T20:54:24.725Z,98534.90
2018-06-19T20:56:53.926Z,98540.20
2018-06-19T20:59:24.215Z,98536.05
2018-06-19T21:01:53.566Z,98539.33
2018-06-19T21:04:22.818Z,98537.75
2018-06-19T21:06:52.108Z,98537.82
2018-06-19T21:09:21.499Z,98542.95
2018-06-19T21:11:50.807Z,98535.46
2018-06-19T21:14:20.221Z,98533.91
2018-06-19T21:16:49.496Z,98536.37
2018-06-19T21:19:19.103Z,98534.75
2018-06-19T21:21:49.244Z,98528.84
2018-06-19T21:24:18.500Z,98532.42
2018-06-19T21:26:47.641Z,98532.98
2018-06-19T21:29:16.851Z,98534.39
2018-06-19T21:31:46.147Z,98533.61
2018-06-19T21:34:15.386Z,98534.98
2018-06-19T21:36:44.715Z,98532.88
2018-06-19T21:39:13.738Z,98535.66
2018-06-19T21:41:42.954Z,98534.30
2018-06-19T21:44:12.232Z,98538.88
2018-06-19T21:46:42.531Z,98535.91
2018-06-19T21:49:11.819Z,98542.11
2018-06-19T21:51:41.076Z,98542.15
2018-06-19T21:54:10.331Z,98539.69
2018-06-19T21:56:39.638Z,98540.83
2018-06-19T21:59:08.837Z,98543.00
2018-06-19T22:01:38.047Z,98540.64
2018-06-19T22:04:07.265Z,98540.64
2018-06-19T22:06:36.604Z,98540.66
2018-06-19T22:09:06.780Z,98537.36
2018-06-19T22:11:36.130Z,98537.96
2018-06-19T22:14:05.439Z,98539.03
2018-06-19T22:16:34.779Z,98546.59
2018-06-19T22:19:04.031Z,98546.36
2018-06-19T22:21:33.263Z,98544.73
2018-06-19T22:24:02.544Z,98542.08
2018-06-19T22:26:31.791Z,98541.80
2018-06-19T22:29:01.158Z,98544.23
2018-06-19T22:31:30.137Z,98542.61
2018-06-19T22:33:59.423Z,98546.67
2018-06-19T22:36:28.683Z,98546.14
2018-06-19T22:38:57.939Z,98539.41
2018-06-19T22:41:27.189Z,98534.88
2018-06-19T22:43:56.523Z,98540.27
2018-06-19T22:46:25.747Z,98541.06
2018-06-19T22:48:54.989Z,98534.65
2018-06-19T22:51:24.226Z,98537.59
2018-06-19T22:53:53.490Z,98544.03
2018-06-19T22:56:22.863Z,98535.41
2018-06-19T22:58:52.167Z,98541.08
2018-06-19T23:01:21.567Z,98538.11
2018-06-19T23:03:50.930Z,98541.61
2018-06-19T23:06:20.267Z,98541.33
2018-06-19T23:08:49.555Z,98542.43
2018-06-19T23:11:18.875Z,98545.11
2018-06-19T23:13:48.180Z,98542.41
2018-06-19T23:16:17.481Z,98533.27
2018-06-19T23:18:46.723Z,98542.41
2018-06-19T23:21:15.950Z,98541.36
2018-06-19T23:23:45.200Z,98542.70
2018-06-19T23:26:14.463Z,98542.98
2018-06-19T23:28:43.682Z,98539.20
2018-06-19T23:31:12.938Z,98538.14
2018-06-19T23:33:42.250Z,98539.76
2018-06-19T23:36:11.540Z,98535.19
2018-06-19T23:38:40.777Z,98534.91
2018-06-19T23:41:10.047Z,98536.53
2018-06-19T23:43:39.261Z,98537.87
2018-06-19T23:46:08.494Z,98536.78
2018-06-19T23:48:37.738Z,98535.46
2018-06-19T23:51:07.019Z,98538.13
2018-06-19T23:53:36.236Z,98537.33
2018-06-19T23:56:05.531Z,98540.02
2018-06-19T23:58:34.912Z,98531.13
